sensor_id;sensor_type;location;lat;lon;timestamp;temperature;humidity
9965;DHT22;5023;53.554;9.964;2022-12-18T00:03:22;-2.50;99.90
9965;DHT22;5023;53.554;9.964;2022-12-18T00:15:34;-2.40;99.90
9965;DHT22;5023;53.554;9.964;2022-12-18T00:27:24;-2.60;99.90
9965;DHT22;5023;53.554;9.964;2022-12-18T00:33:12;-2.60;99.90
9965;DHT22;5023;53.554;9.964;2022-12-18T00:44:53;-2.60;99.90
9965;DHT22;5023;53.554;9.964;2022-12-18T00:50:41;-2.50;99.90
9965;DHT22;5023;53.554;9.964;2022-12-18T01:02:46;-2.60;99.90
9965;DHT22;5023;53.554;9.964;2022-12-18T01:08:24;-2.70;99.90
9965;DHT22;5023;53.554;9.964;2022-12-18T01:13:28;-2.70;99.90
9965;DHT22;5023;53.554;9.964;2022-12-18T01:18:45;-2.70;99.90
9965;DHT22;5023;53.554;9.964;2022-12-18T01:24:22;-2.80;99.90
9965;DHT22;5023;53.554;9.964;2022-12-18T01:29:44;-2.80;99.90
9965;DHT22;5023;53.554;9.964;2022-12-18T01:35:20;-2.90;99.90
9965;DHT22;5023;53.554;9.964;2022-12-18T01:40:51;-2.90;99.90
9965;DHT22;5023;53.554;9.964;2022-12-18T01:46:36;-3.00;99.90
9965;DHT22;5023;53.554;9.964;2022-12-18T01:51:52;-2.80;99.90
9965;DHT22;5023;53.554;9.964;2022-12-18T01:57:00;-3.00;99.90
9965;DHT22;5023;53.554;9.964;2022-12-18T02:02:55;-3.10;99.90
9965;DHT22;5023;53.554;9.964;2022-12-18T02:08:34;-2.60;99.90
9965;DHT22;5023;53.554;9.964;2022-12-18T02:14:38;-3.00;99.90
9965;DHT22;5023;53.554;9.964;2022-12-18T02:26:46;-3.00;99.90
9965;DHT22;5023;53.554;9.964;2022-12-18T02:32:54;-3.10;99.90
9965;DHT22;5023;53.554;9.964;2022-12-18T02:38:53;-3.00;99.90
9965;DHT22;5023;53.554;9.964;2022-12-18T02:51:10;-3.10;99.90
9965;DHT22;5023;53.554;9.964;2022-12-18T02:57:09;-3.10;99.90
9965;DHT22;5023;53.554;9.964;2022-12-18T03:03:39;-3.10;99.90
9965;DHT22;5023;53.554;9.964;2022-12-18T03:09:50;-3.10;99.90
9965;DHT22;5023;53.554;9.964;2022-12-18T03:15:51;-3.30;99.90
9965;DHT22;5023;53.554;9.964;2022-12-18T03:28:01;-3.50;99.90
9965;DHT22;5023;53.554;9.964;2022-12-18T03:33:55;-3.60;99.90
9965;DHT22;5023;53.554;9.964;2022-12-18T03:39:50;-3.50;99.90
9965;DHT22;5023;53.554;9.964;2022-12-18T03:52:03;-3.50;99.90
9965;DHT22;5023;53.554;9.964;2022-12-18T03:57:44;-3.50;99.90
9965;DHT22;5023;53.554;9.964;2022-12-18T04:03:25;-3.60;99.90
9965;DHT22;5023;53.554;9.964;2022-12-18T04:09:36;-3.60;99.90
9965;DHT22;5023;53.554;9.964;2022-12-18T04:15:21;-3.60;99.90
9965;DHT22;5023;53.554;9.964;2022-12-18T04:26:55;-3.70;99.90
9965;DHT22;5023;53.554;9.964;2022-12-18T04:31:57;-3.70;99.90
9965;DHT22;5023;53.554;9.964;2022-12-18T04:43:49;-3.70;99.90
9965;DHT22;5023;53.554;9.964;2022-12-18T04:49:25;-3.40;99.90
9965;DHT22;5023;53.554;9.964;2022-12-18T04:55:01;-3.80;99.90
9965;DHT22;5023;53.554;9.964;2022-12-18T05:00:36;-3.90;99.90
9965;DHT22;5023;53.554;9.964;2022-12-18T05:06:48;-3.90;99.90
9965;DHT22;5023;53.554;9.964;2022-12-18T05:12:33;-4.00;99.90
9965;DHT22;5023;53.554;9.964;2022-12-18T05:18:45;-4.00;99.90
9965;DHT22;5023;53.554;9.964;2022-12-18T05:24:24;-3.90;99.90
9965;DHT22;5023;53.554;9.964;2022-12-18T05:30:15;-4.00;99.90
9965;DHT22;5023;53.554;9.964;2022-12-18T05:35:58;-4.10;99.90
9965;DHT22;5023;53.554;9.964;2022-12-18T05:41:41;-4.20;99.90
9965;DHT22;5023;53.554;9.964;2022-12-18T05:47:17;-4.20;99.90
9965;DHT22;5023;53.554;9.964;2022-12-18T05:52:51;-4.10;99.90
9965;DHT22;5023;53.554;9.964;2022-12-18T05:58:34;-4.10;99.90
9965;DHT22;5023;53.554;9.964;2022-12-18T06:10:08;-4.60;99.90
9965;DHT22;5023;53.554;9.964;2022-12-18T06:15:42;-4.10;99.90
9965;DHT22;5023;53.554;9.964;2022-12-18T06:27:32;-4.00;99.90
9965;DHT22;5023;53.554;9.964;2022-12-18T06:33:55;-3.90;99.90
9965;DHT22;5023;53.554;9.964;2022-12-18T06:45:29;-4.40;99.90
9965;DHT22;5023;53.554;9.964;2022-12-18T06:51:18;-4.40;99.90
9965;DHT22;5023;53.554;9.964;2022-12-18T07:03:21;-4.50;99.90
9965;DHT22;5023;53.554;9.964;2022-12-18T07:08:59;-4.60;99.90
9965;DHT22;5023;53.554;9.964;2022-12-18T07:21:03;-4.60;99.90
9965;DHT22;5023;53.554;9.964;2022-12-18T07:26:47;-4.60;99.90
9965;DHT22;5023;53.554;9.964;2022-12-18T07:38:27;-4.60;99.90
9965;DHT22;5023;53.554;9.964;2022-12-18T07:44:24;-4.50;99.90
9965;DHT22;5023;53.554;9.964;2022-12-18T08:02:12;-4.30;99.90
9965;DHT22;5023;53.554;9.964;2022-12-18T08:07:54;-4.20;99.90
9965;DHT22;5023;53.554;9.964;2022-12-18T08:19:34;-4.20;99.90
9965;DHT22;5023;53.554;9.964;2022-12-18T08:25:15;-4.30;99.90
9965;DHT22;5023;53.554;9.964;2022-12-18T08:30:53;-4.30;99.90
9965;DHT22;5023;53.554;9.964;2022-12-18T08:36:52;-4.30;99.90
9965;DHT22;5023;53.554;9.964;2022-12-18T08:42:27;-4.20;99.90
9965;DHT22;5023;53.554;9.964;2022-12-18T08:48:27;-4.30;99.90
9965;DHT22;5023;53.554;9.964;2022-12-18T09:12:22;-4.10;99.90
9965;DHT22;5023;53.554;9.964;2022-12-18T09:18:24;-4.00;99.90
9965;DHT22;5023;53.554;9.964;2022-12-18T09:23:58;-4.00;99.90
9965;DHT22;5023;53.554;9.964;2022-12-18T09:41:51;-3.70;99.90
9965;DHT22;5023;53.554;9.964;2022-12-18T09:47:30;-3.70;99.90
9965;DHT22;5023;53.554;9.964;2022-12-18T09:59:32;-3.50;99.90
9965;DHT22;5023;53.554;9.964;2022-12-18T10:23:48;-3.00;99.90
9965;DHT22;5023;53.554;9.964;2022-12-18T10:29:49;-2.80;99.90
9965;DHT22;5023;53.554;9.964;2022-12-18T10:48:19;-2.60;99.90
9965;DHT22;5023;53.554;9.964;2022-12-18T10:54:21;-2.60;99.90
9965;DHT22;5023;53.554;9.964;2022-12-18T11:06:25;-2.50;99.90
9965;DHT22;5023;53.554;9.964;2022-12-18T11:12:02;-2.50;99.90
9965;DHT22;5023;53.554;9.964;2022-12-18T11:23:58;-2.30;99.90
9965;DHT22;5023;53.554;9.964;2022-12-18T11:29:38;-2.20;99.90
9965;DHT22;5023;53.554;9.964;2022-12-18T11:41:21;-2.10;99.90
9965;DHT22;5023;53.554;9.964;2022-12-18T11:47:25;-2.10;99.90
9965;DHT22;5023;53.554;9.964;2022-12-18T11:59:23;-1.90;99.90
9965;DHT22;5023;53.554;9.964;2022-12-18T12:05:40;-1.70;99.90
9965;DHT22;5023;53.554;9.964;2022-12-18T12:17:49;-1.60;99.90
9965;DHT22;5023;53.554;9.964;2022-12-18T12:23:52;-1.00;99.90
9965;DHT22;5023;53.554;9.964;2022-12-18T12:30:00;-1.40;99.90
9965;DHT22;5023;53.554;9.964;2022-12-18T12:36:03;-1.50;99.90
9965;DHT22;5023;53.554;9.964;2022-12-18T12:41:42;-1.40;99.90
9965;DHT22;5023;53.554;9.964;2022-12-18T12:47:12;-1.30;99.90
9965;DHT22;5023;53.554;9.964;2022-12-18T12:53:01;-1.30;99.90
9965;DHT22;5023;53.554;9.964;2022-12-18T12:58:46;-1.20;99.90
9965;DHT22;5023;53.554;9.964;2022-12-18T13:10:26;-1.30;99.90
9965;DHT22;5023;53.554;9.964;2022-12-18T13:16:25;-1.50;99.90
9965;DHT22;5023;53.554;9.964;2022-12-18T13:28:05;-1.20;99.90
9965;DHT22;5023;53.554;9.964;2022-12-18T13:34:16;-1.20;99.90
9965;DHT22;5023;53.554;9.964;2022-12-18T13:53:21;-1.60;99.90
9965;DHT22;5023;53.554;9.964;2022-12-18T13:59:20;-1.60;99.90
9965;DHT22;5023;53.554;9.964;2022-12-18T14:04:57;-1.50;99.90
9965;DHT22;5023;53.554;9.964;2022-12-18T14:10:46;-1.50;99.90
9965;DHT22;5023;53.554;9.964;2022-12-18T14:16:22;-1.70;99.90
9965;DHT22;5023;53.554;9.964;2022-12-18T14:22:25;-1.80;99.90
9965;DHT22;5023;53.554;9.964;2022-12-18T15:04:01;-2.10;99.90
9965;DHT22;5023;53.554;9.964;2022-12-18T15:10:03;-2.10;99.90
9965;DHT22;5023;53.554;9.964;2022-12-18T15:15:46;-2.30;99.90
9965;DHT22;5023;53.554;9.964;2022-12-18T15:27:25;-2.20;99.90
9965;DHT22;5023;53.554;9.964;2022-12-18T15:46:00;-1.90;99.90
9965;DHT22;5023;53.554;9.964;2022-12-18T15:51:37;-2.00;99.90
9965;DHT22;5023;53.554;9.964;2022-12-18T16:03:11;-2.10;99.90
9965;DHT22;5023;53.554;9.964;2022-12-18T16:09:11;-2.10;99.90
9965;DHT22;5023;53.554;9.964;2022-12-18T16:27:18;-2.30;99.90
9965;DHT22;5023;53.554;9.964;2022-12-18T16:32:53;-2.40;99.90
9965;DHT22;5023;53.554;9.964;2022-12-18T16:38:30;-2.50;99.90
9965;DHT22;5023;53.554;9.964;2022-12-18T16:44:29;-2.60;99.90
9965;DHT22;5023;53.554;9.964;2022-12-18T16:50:10;-2.70;99.90
9965;DHT22;5023;53.554;9.964;2022-12-18T17:01:59;-2.70;99.90
9965;DHT22;5023;53.554;9.964;2022-12-18T17:07:58;-2.70;99.90
9965;DHT22;5023;53.554;9.964;2022-12-18T17:13:01;-2.70;99.90
9965;DHT22;5023;53.554;9.964;2022-12-18T17:18:37;-2.70;99.90
9965;DHT22;5023;53.554;9.964;2022-12-18T17:24:12;-2.70;99.90
9965;DHT22;5023;53.554;9.964;2022-12-18T17:29:46;-2.70;99.90
9965;DHT22;5023;53.554;9.964;2022-12-18T17:41:25;-2.70;99.90
9965;DHT22;5023;53.554;9.964;2022-12-18T17:47:24;-2.60;99.90
9965;DHT22;5023;53.554;9.964;2022-12-18T17:52:28;-2.70;99.90
9965;DHT22;5023;53.554;9.964;2022-12-18T17:58:03;-2.70;99.90
9965;DHT22;5023;53.554;9.964;2022-12-18T18:04:03;-2.70;99.90
9965;DHT22;5023;53.554;9.964;2022-12-18T18:09:39;-2.60;99.90
9965;DHT22;5023;53.554;9.964;2022-12-18T18:15:17;-2.50;99.90
9965;DHT22;5023;53.554;9.964;2022-12-18T18:20:57;-2.50;99.90
9965;DHT22;5023;53.554;9.964;2022-12-18T18:32:36;-2.40;99.90
9965;DHT22;5023;53.554;9.964;2022-12-18T18:38:11;-2.40;99.90
9965;DHT22;5023;53.554;9.964;2022-12-18T18:49:52;-2.40;99.90
9965;DHT22;5023;53.554;9.964;2022-12-18T18:55:34;-2.30;99.90
9965;DHT22;5023;53.554;9.964;2022-12-18T19:07:09;-2.30;99.90
9965;DHT22;5023;53.554;9.964;2022-12-18T19:12:11;-2.30;99.90
9965;DHT22;5023;53.554;9.964;2022-12-18T19:17:33;-2.20;99.90
9965;DHT22;5023;53.554;9.964;2022-12-18T19:23:14;-2.20;99.90
9965;DHT22;5023;53.554;9.964;2022-12-18T19:28:49;-2.30;99.90
9965;DHT22;5023;53.554;9.964;2022-12-18T19:34:25;-2.20;99.90
9965;DHT22;5023;53.554;9.964;2022-12-18T19:40:07;-2.20;99.90
9965;DHT22;5023;53.554;9.964;2022-12-18T19:58:17;-2.20;99.90
9965;DHT22;5023;53.554;9.964;2022-12-18T20:04:36;-2.20;99.90
9965;DHT22;5023;53.554;9.964;2022-12-18T20:09:58;-2.20;99.90
9965;DHT22;5023;53.554;9.964;2022-12-18T20:21:32;-2.20;99.90
9965;DHT22;5023;53.554;9.964;2022-12-18T20:39:21;-2.20;99.90
9965;DHT22;5023;53.554;9.964;2022-12-18T20:44:58;-2.10;99.90
9965;DHT22;5023;53.554;9.964;2022-12-18T20:50:27;-2.10;99.90
9965;DHT22;5023;53.554;9.964;2022-12-18T21:02:27;-2.00;99.90
9965;DHT22;5023;53.554;9.964;2022-12-18T21:08:15;-2.00;99.90
9965;DHT22;5023;53.554;9.964;2022-12-18T21:13:38;-2.00;99.90
9965;DHT22;5023;53.554;9.964;2022-12-18T21:19:14;-2.00;99.90
9965;DHT22;5023;53.554;9.964;2022-12-18T21:25:11;-1.80;99.90
9965;DHT22;5023;53.554;9.964;2022-12-18T21:30:43;-1.80;99.90
9965;DHT22;5023;53.554;9.964;2022-12-18T21:36:42;-1.80;99.90
9965;DHT22;5023;53.554;9.964;2022-12-18T21:42:23;-1.70;99.90
9965;DHT22;5023;53.554;9.964;2022-12-18T21:47:44;-1.70;99.90
9965;DHT22;5023;53.554;9.964;2022-12-18T21:53:23;-1.70;99.90
9965;DHT22;5023;53.554;9.964;2022-12-18T21:58:58;-1.70;99.90
9965;DHT22;5023;53.554;9.964;2022-12-18T22:04:05;-1.70;99.90
9965;DHT22;5023;53.554;9.964;2022-12-18T22:09:56;-1.70;99.90
9965;DHT22;5023;53.554;9.964;2022-12-18T22:15:32;-1.70;99.90
9965;DHT22;5023;53.554;9.964;2022-12-18T22:21:22;-1.70;99.90
9965;DHT22;5023;53.554;9.964;2022-12-18T22:26:56;-1.70;99.90
9965;DHT22;5023;53.554;9.964;2022-12-18T22:32:38;-1.70;99.90
9965;DHT22;5023;53.554;9.964;2022-12-18T22:43:59;-1.60;99.90
9965;DHT22;5023;53.554;9.964;2022-12-18T22:49:34;-1.60;99.90
9965;DHT22;5023;53.554;9.964;2022-12-18T23:01:29;-1.50;99.90
9965;DHT22;5023;53.554;9.964;2022-12-18T23:07:05;-1.60;99.90
9965;DHT22;5023;53.554;9.964;2022-12-18T23:12:41;-1.50;99.90
9965;DHT22;5023;53.554;9.964;2022-12-18T23:18:20;-1.50;99.90
9965;DHT22;5023;53.554;9.964;2022-12-18T23:23:54;-1.50;99.90
9965;DHT22;5023;53.554;9.964;2022-12-18T23:29:31;-1.40;99.90
9965;DHT22;5023;53.554;9.964;2022-12-18T23:35:10;-1.40;99.90
9965;DHT22;5023;53.554;9.964;2022-12-18T23:41:10;-1.50;99.90
9965;DHT22;5023;53.554;9.964;2022-12-18T23:46:48;-1.40;99.90
9965;DHT22;5023;53.554;9.964;2022-12-18T23:52:26;-1.50;99.90
9965;DHT22;5023;53.554;9.964;2022-12-18T23:57:28;-1.40;99.90
